メインページ
METAR-TAF:

METAR-TAF

空港 :

オタワ, オンタリオ州, カナダ

オタワ・マクドナルド・カルティエ国際空港

緯度: 45-19N, 経度: 075-40W, 海抜: 116m

現時点の気象観測

当レポートは1時間33分前の21:00(UTC)に作成
の風 7kt
気温 21°C
湿度 73%
気圧 1018 hPa
視程: 24.1km
高度3500ftの雲はほとんどない
高度5000ftの雲は散在している
高度14000ftの曇り

METAR: CYOW 262100Z 19007KT 15SM FEW035 SCT050 OVC140 21/16 A3007 RMK CU1SC3AC4 SLP185 DENSITY ALT 1000FT

時間: 18:33 (22:33 UTC)

予報

当レポートは1時間55分前の20:38(UTC)に作成
予報は26日の 21時(UTC)から 27日の 18時(UTC)まで有効
の風 6kt
視程: 10km
高度5000ftの千切れ雲あり
26日の 21時(UTC)から 27日の 01時(UTC)まで一時的に
視程: 10km
弱いにわか雨
27日の 0100時(UTC)から
南西の風 7kt
視程: 10km
高度2000ftの雲は散在している
高度4000ftの曇り
弱いにわか雨
確率 30%
27日の 04時(UTC)から 27日の 07時(UTC)まで
変向風 15kt、最大25ktの突風を伴う
視程: 4.8km
高度3000ftの千切れ雲あり, 積乱雲.
激しい雷雨, 雨, 靄
27日の 1000時(UTC)から
南西の風 8kt
視程: 10km
高度600ftの雲はほとんどない
高度2000ftの千切れ雲あり
27日の 14時(UTC)から 27日の 16時(UTC)まで徐々に
西/北西の風 10kt

TAF: CYOW 262038Z 2621/2718 18006KT P6SM BKN050 TEMPO 2621/2701 P6SM -SHRA FM270100 22007KT P6SM -SHRA SCT020 OVC040 PROB30 2704/2707 VRB15G25KT 3SM TSRA BR BKN030CB FM271000 23008KT P6SM FEW006 BKN020 BECMG 2714/2716 29010KT RMK NXT FCST BY 270000Z

4,000以上の空港の気象観測と天気予報(METAR報とTAF報)

利用可能な観測所は地図上に黄色い丸と赤い丸で示す。

丸の上にカーソルを重ねると観測所名を参照できる。

次にクリックすると気象観測と天気予報を参照できる。

マップの切り替え:黒色「×」印の緑ボタンをクリックして拡大、「-」印の緑ボタンをクリックして縮小、緑色の三角印をクリックして隣りの地図に切り替え


METAR-TAF: